Time;durP1;ratioP1;P1;durP2;ratioP2;P2;SDS_P1;SDS_P2;PMS_P1;PMS_P2;Temp;Humidity;BMP_temperature;BMP_pressure;BME280_temperature;BME280_humidity;BME280_pressure;Samples;Min_cycle;Max_cycle;Signal;HPM_P1;HPM_P2
2021/07/01 00:02:26;;;;;;;21.57;10.45;;;;;;;17.36;79.71;101137.83;1828065;78;21138;-67
2021/07/01 00:04:55;;;;;;;15.03;9.53;;;;;;;17.33;79.67;101131.34;1827998;78;21031;-66
2021/07/01 00:07:23;;;;;;;13.70;9.18;;;;;;;17.33;79.84;101130.02;1828059;78;21092;-66
2021/07/01 00:09:52;;;;;;;18.57;10.80;;;;;;;17.36;79.55;101132.98;1828178;78;21032;-66
2021/07/01 00:12:21;;;;;;;17.42;9.60;;;;;;;17.35;79.65;101129.48;1828018;78;21112;-66
2021/07/01 00:14:50;;;;;;;17.92;11.68;;;;;;;17.31;79.74;101125.75;1828029;78;21069;-66
2021/07/01 00:17:19;;;;;;;18.35;10.78;;;;;;;17.28;79.86;101125.48;1827924;78;21130;-68
2021/07/01 00:19:47;;;;;;;17.35;9.88;;;;;;;17.26;79.85;101126.02;1828052;78;21032;-67
2021/07/01 00:22:16;;;;;;;13.78;9.55;;;;;;;17.24;79.70;101125.26;1828035;78;21142;-67
2021/07/01 00:24:45;;;;;;;15.20;9.75;;;;;;;17.20;79.89;101121.08;1828025;78;21153;-67
2021/07/01 00:27:13;;;;;;;20.15;11.20;;;;;;;17.20;79.99;101113.09;1828082;78;21162;-67
2021/07/01 00:29:42;;;;;;;14.20;9.10;;;;;;;17.18;79.86;101116.33;1828084;77;21490;-67
2021/07/01 00:32:11;;;;;;;13.00;8.13;;;;;;;17.17;79.92;101118.59;1828288;78;21111;-67
2021/07/01 00:34:39;;;;;;;12.33;8.43;;;;;;;17.15;79.85;101116.50;1828134;78;21152;-67
2021/07/01 00:37:08;;;;;;;15.30;8.28;;;;;;;17.12;79.64;101123.36;1828165;78;21012;-66
2021/07/01 00:39:37;;;;;;;15.95;8.13;;;;;;;17.07;79.58;101123.62;1828123;78;21022;-66
2021/07/01 00:42:06;;;;;;;13.00;8.60;;;;;;;17.04;79.55;101128.27;1828151;78;21036;-66
2021/07/01 00:44:35;;;;;;;17.92;9.83;;;;;;;16.99;79.72;101132.55;1827998;78;21155;-67
2021/07/01 00:47:04;;;;;;;15.35;8.88;;;;;;;16.95;79.96;101121.72;1828156;78;21125;-66
2021/07/01 00:49:35;;;;;;;13.65;8.68;;;;;;;16.88;80.19;101121.22;1828218;78;21059;-66
2021/07/01 00:52:06;;;;;;;14.28;9.05;;;;;;;16.86;80.18;101124.93;1828157;78;21104;-66
2021/07/01 00:54:35;;;;;;;13.83;9.33;;;;;;;16.84;80.37;101125.02;1828264;78;21044;-66
2021/07/01 00:57:05;;;;;;;15.75;9.85;;;;;;;16.81;80.38;101111.01;1828142;78;21036;-66
2021/07/01 00:59:34;;;;;;;13.30;9.63;;;;;;;16.79;80.43;101112.42;1828202;78;21032;-66
2021/07/01 01:02:03;;;;;;;13.88;9.10;;;;;;;16.76;80.63;101111.27;1828118;78;21086;-66
2021/07/01 01:04:31;;;;;;;16.25;8.85;;;;;;;16.74;80.62;101115.82;1828129;78;21271;-66
2021/07/01 01:07:00;;;;;;;13.80;9.73;;;;;;;16.72;80.63;101117.72;1828174;78;21032;-66
2021/07/01 01:09:30;;;;;;;16.52;10.25;;;;;;;16.69;80.88;101117.89;1828007;78;21527;-67
2021/07/01 01:11:59;;;;;;;15.00;10.13;;;;;;;16.66;81.03;101119.42;1828136;78;21020;-66
2021/07/01 01:14:28;;;;;;;15.03;10.55;;;;;;;16.63;81.00;101119.59;1828347;78;21466;-66
2021/07/01 01:16:58;;;;;;;17.77;10.15;;;;;;;16.60;81.05;101113.98;1827748;78;21063;-66
2021/07/01 01:19:27;;;;;;;15.50;9.00;;;;;;;16.58;81.17;101113.19;1828247;78;21059;-66
2021/07/01 01:21:57;;;;;;;14.28;8.55;;;;;;;16.58;81.07;101113.19;1828079;78;21108;-67
2021/07/01 01:24:26;;;;;;;16.00;7.95;;;;;;;16.56;80.71;101115.97;1828227;78;20996;-67
2021/07/01 01:26:55;;;;;;;16.20;9.18;;;;;;;16.54;80.46;101113.88;1828286;78;21063;-66
2021/07/01 01:29:24;;;;;;;18.52;9.03;;;;;;;16.51;80.50;101110.05;1828282;78;21102;-66
2021/07/01 01:31:53;;;;;;;13.78;8.05;;;;;;;16.48;80.79;101110.22;1828126;78;21056;-66
2021/07/01 01:34:22;;;;;;;14.87;9.98;;;;;;;16.47;80.92;101113.84;1828231;78;21322;-67
2021/07/01 01:36:51;;;;;;;15.08;9.20;;;;;;;16.47;81.10;101119.16;1828019;78;21095;-67
2021/07/01 01:39:23;;;;;;;15.30;9.30;;;;;;;16.46;81.11;101113.45;1828177;78;21063;-66
2021/07/01 01:41:56;;;;;;;14.90;10.65;;;;;;;16.45;81.09;101122.38;1818977;78;21031;-66
2021/07/01 01:44:27;;;;;;;18.73;9.55;;;;;;;16.47;80.97;101127.58;1831138;78;21554;-66
2021/07/01 01:46:55;;;;;;;15.00;9.75;;;;;;;16.46;81.00;101133.38;1837196;78;21028;-66
2021/07/01 01:49:24;;;;;;;15.10;9.30;;;;;;;16.49;80.91;101127.02;1837093;78;21118;-67
2021/07/01 01:51:53;;;;;;;16.10;8.63;;;;;;;16.50;80.79;101126.94;1837167;78;21047;-67
2021/07/01 01:54:22;;;;;;;20.30;10.35;;;;;;;16.52;80.62;101130.84;1837273;78;21063;-67
2021/07/01 01:56:51;;;;;;;16.20;9.53;;;;;;;16.52;80.63;101125.04;1837168;78;21066;-67
2021/07/01 01:59:27;;;;;;;16.40;9.18;;;;;;;16.54;80.53;101137.80;1820370;78;21537;-67
2021/07/01 02:02:06;;;;;;;14.90;8.80;;;;;;;16.56;80.42;101139.89;1831910;78;21177;-67
2021/07/01 02:04:36;;;;;;;19.50;9.15;;;;;;;16.58;80.25;101134.01;1836572;77;21103;-66
2021/07/01 02:07:06;;;;;;;12.40;9.15;;;;;;;16.63;80.11;101138.20;1837318;78;21129;-67
2021/07/01 02:09:39;;;;;;;20.88;9.63;;;;;;;16.63;80.19;101137.72;1832763;77;21560;-66
2021/07/01 02:12:09;;;;;;;23.73;9.68;;;;;;;16.65;80.15;101143.80;1837001;78;21507;-67
2021/07/01 02:14:38;;;;;;;15.93;9.03;;;;;;;16.71;80.12;101141.25;1837267;78;21035;-66
2021/07/01 02:17:09;;;;;;;17.75;8.68;;;;;;;16.74;80.02;101137.94;1835757;78;21055;-66
2021/07/01 02:19:38;;;;;;;15.20;8.60;;;;;;;16.79;79.86;101141.20;1837232;78;21564;-65
2021/07/01 02:22:07;;;;;;;17.42;8.98;;;;;;;16.87;79.71;101146.09;1837139;78;21071;-66
2021/07/01 02:24:37;;;;;;;13.32;7.95;;;;;;;16.90;79.40;101140.59;1836309;78;21035;-66
2021/07/01 02:27:07;;;;;;;14.43;8.90;;;;;;;16.95;79.19;101137.20;1837237;78;21592;-66
2021/07/01 02:29:37;;;;;;;16.52;8.63;;;;;;;16.96;78.96;101132.24;1837172;78;21052;-67
2021/07/01 02:32:08;;;;;;;11.53;7.65;;;;;;;17.01;78.73;101129.33;1835184;78;21552;-66
2021/07/01 02:34:42;;;;;;;12.78;7.75;;;;;;;17.08;78.52;101130.67;1837166;78;21035;-66
2021/07/01 02:37:26;;;;;;;12.23;8.08;;;;;;;17.17;78.39;101122.59;1715143;84;21890;-65
2021/07/01 02:40:11;;;;;;;13.13;7.15;;;;;;;17.25;78.11;101128.80;1807269;78;21059;-66
2021/07/01 02:42:43;;;;;;;11.57;7.65;;;;;;;17.32;77.90;101127.00;1834614;78;21037;-65
2021/07/01 02:45:13;;;;;;;10.30;7.47;;;;;;;17.44;77.64;101128.52;1837130;78;21162;-66
2021/07/01 02:47:59;;;;;;;11.45;7.33;;;;;;;17.55;77.33;101130.03;1814724;78;21463;-65
2021/07/01 02:50:28;;;;;;;13.25;6.83;;;;;;;17.75;76.87;101125.64;1837063;78;21083;-65
2021/07/01 02:52:57;;;;;;;8.58;7.28;;;;;;;18.04;76.09;101130.97;1837197;78;21080;-65
2021/07/01 02:55:26;;;;;;;10.78;6.62;;;;;;;18.12;75.72;101132.66;1837162;78;21537;-65
2021/07/01 02:57:55;;;;;;;15.58;6.95;;;;;;;18.18;75.29;101126.06;1837082;78;21076;-66
2021/07/01 03:00:24;;;;;;;14.87;7.47;;;;;;;18.28;74.82;101125.02;1837140;78;21064;-66
2021/07/01 03:02:54;;;;;;;12.65;7.12;;;;;;;18.31;74.20;101123.45;1835820;78;21177;-65
2021/07/01 03:05:25;;;;;;;10.80;7.10;;;;;;;18.38;74.17;101130.59;1835953;78;21160;-65
2021/07/01 03:07:54;;;;;;;14.78;7.85;;;;;;;18.49;74.22;101132.91;1837168;78;21069;-65
2021/07/01 03:10:23;;;;;;;12.60;7.65;;;;;;;18.68;74.02;101136.56;1837126;78;21439;-66
2021/07/01 03:12:56;;;;;;;;;;;;;;;18.81;73.40;101137.09;1838915;77;21079;-66
2021/07/01 03:15:25;;;;;;;8.28;6.58;;;;;;;18.98;72.89;101132.81;1837056;78;20137;-66
2021/07/01 03:17:54;;;;;;;10.13;6.65;;;;;;;19.08;72.28;101135.70;1837145;78;21648;-65
2021/07/01 03:20:24;;;;;;;9.60;5.80;;;;;;;19.25;71.99;101131.37;1835263;78;21099;-66
2021/07/01 03:23:10;;;;;;;9.85;4.83;;;;;;;19.34;71.21;101120.53;1813508;78;21091;-65
2021/07/01 03:25:39;;;;;;;13.32;6.65;;;;;;;19.40;70.70;101117.91;1837148;78;21146;-65
2021/07/01 03:28:09;;;;;;;11.80;6.00;;;;;;;19.42;69.93;101117.33;1836898;78;21094;-65
2021/07/01 03:30:39;;;;;;;10.15;5.72;;;;;;;19.47;70.03;101123.20;1837233;78;21111;-65
2021/07/01 03:33:07;;;;;;;8.43;5.67;;;;;;;19.53;69.83;101132.14;1837054;78;21072;-65
2021/07/01 03:35:38;;;;;;;7.83;5.58;;;;;;;19.65;69.86;101127.24;1836955;78;21605;-64
2021/07/01 03:38:24;;;;;;;8.75;5.58;;;;;;;19.80;69.98;101134.67;1837042;78;21087;-64
2021/07/01 03:40:55;;;;;;;10.08;5.12;;;;;;;19.92;69.02;101135.63;1833983;78;21079;-65
2021/07/01 03:43:25;;;;;;;7.35;5.00;;;;;;;19.97;68.21;101138.80;1837079;78;21048;-64
2021/07/01 03:45:55;;;;;;;9.50;5.40;;;;;;;20.05;67.89;101140.45;1836545;78;21108;-65
2021/07/01 03:48:24;;;;;;;9.50;5.20;;;;;;;20.12;67.85;101139.98;1837199;78;21091;-65
2021/07/01 03:51:10;;;;;;;22.25;7.47;;;;;;;20.24;67.74;101141.77;1775729;81;21105;-65
2021/07/01 03:53:41;;;;;;;23.77;8.58;;;;;;;20.36;67.34;101131.98;1818020;78;21538;-64
2021/07/01 03:56:14;;;;;;;16.07;6.83;;;;;;;20.43;67.05;101130.06;1837022;78;21087;-65
2021/07/01 03:58:43;;;;;;;10.03;5.28;;;;;;;20.53;67.12;101124.91;1837133;78;21107;-64
2021/07/01 04:01:31;;;;;;;9.23;4.72;;;;;;;20.69;66.99;101133.98;1837002;78;21151;-64
2021/07/01 04:04:00;;;;;;;7.28;4.78;;;;;;;20.82;66.41;101116.05;1837132;78;21067;-65
2021/07/01 04:06:28;;;;;;;6.83;4.17;;;;;;;20.93;66.04;101119.71;1837148;78;21486;-64
2021/07/01 04:08:58;;;;;;;12.18;6.00;;;;;;;21.05;65.73;101111.23;1837035;78;21063;-64
2021/07/01 04:11:27;;;;;;;7.85;5.25;;;;;;;21.13;64.88;101119.02;1837145;78;21083;-66
2021/07/01 04:13:56;;;;;;;12.78;5.58;;;;;;;21.27;64.26;101120.64;1837096;78;21596;-64
2021/07/01 04:16:43;;;;;;;7.42;4.37;;;;;;;21.41;64.06;101114.18;1837130;78;21573;-63
2021/07/01 04:19:30;;;;;;;10.58;4.62;;;;;;;21.69;64.04;101109.34;1837106;78;21157;-64
2021/07/01 04:22:16;;;;;;;10.20;4.95;;;;;;;21.99;63.81;101115.41;1837123;78;21084;-64
2021/07/01 04:25:04;;;;;;;6.58;4.55;;;;;;;22.34;63.42;101111.69;1837219;78;21115;-64
2021/07/01 04:27:34;;;;;;;9.88;5.70;;;;;;;22.68;62.98;101108.35;1835401;78;21153;-66
2021/07/01 04:30:05;;;;;;;9.58;5.60;;;;;;;23.06;62.44;101109.64;1837358;78;21107;-65
2021/07/01 04:32:36;;;;;;;7.95;5.12;;;;;;;23.42;61.99;101108.76;1833164;77;21080;-64
2021/07/01 04:35:05;;;;;;;7.47;5.10;;;;;;;23.75;60.93;101115.34;1837141;77;21068;-64
2021/07/01 04:37:34;;;;;;;10.53;5.08;;;;;;;24.00;59.85;101114.03;1837272;78;21059;-63
2021/07/01 04:40:09;;;;;;;9.50;5.28;;;;;;;24.28;59.21;101107.83;1837023;78;21071;-63
2021/07/01 04:42:40;;;;;;;5.53;4.30;;;;;;;24.61;58.66;101107.59;1836611;78;21087;-64
2021/07/01 04:45:10;;;;;;;8.50;4.83;;;;;;;24.90;57.64;101090.54;1837277;78;21518;-64
2021/07/01 04:47:40;;;;;;;10.40;4.85;;;;;;;25.11;57.15;101095.75;1830226;78;21138;-64
2021/07/01 04:50:11;;;;;;;7.35;4.90;;;;;;;25.32;56.35;101101.80;1828134;78;21064;-64
2021/07/01 04:52:44;;;;;;;9.13;4.60;;;;;;;25.45;55.75;101099.27;1828096;78;21115;-64
2021/07/01 04:55:30;;;;;;;8.23;4.78;;;;;;;25.63;55.54;101101.02;1828145;78;21122;-64
2021/07/01 04:58:17;;;;;;;10.95;4.42;;;;;;;25.90;55.13;101105.23;1828118;78;21044;-64
2021/07/01 05:00:48;;;;;;;7.95;4.40;;;;;;;26.08;54.68;101106.15;1827081;78;21502;-64
2021/07/01 05:03:35;;;;;;;6.97;4.62;;;;;;;26.32;54.20;101104.67;1828092;78;21060;-64
2021/07/01 05:06:05;;;;;;;9.33;5.03;;;;;;;26.62;54.02;101105.34;1828111;78;21064;-64
2021/07/01 05:08:34;;;;;;;8.55;4.47;;;;;;;26.94;53.91;101101.51;1828166;78;21067;-64
2021/07/01 05:11:04;;;;;;;8.80;4.60;;;;;;;27.27;53.46;101099.56;1828177;78;21024;-64
2021/07/01 05:13:33;;;;;;;6.80;4.55;;;;;;;27.49;52.72;101097.64;1828102;78;21123;-64
2021/07/01 05:16:02;;;;;;;6.25;4.28;;;;;;;27.74;52.16;101096.41;1828310;78;21111;-64
2021/07/01 05:18:32;;;;;;;5.67;4.15;;;;;;;28.14;51.97;101103.47;1828360;78;21482;-64
2021/07/01 05:21:14;;;;;;;8.08;4.03;;;;;;;28.50;50.08;101100.80;1826622;78;21102;-64
2021/07/01 05:24:01;;;;;;;5.35;3.62;;;;;;;28.72;48.72;101098.95;1828102;78;21047;-64
2021/07/01 05:26:43;;;;;;;7.28;4.33;;;;;;;28.97;47.67;101101.98;1828182;78;21032;-64
2021/07/01 05:29:30;;;;;;;4.90;3.80;;;;;;;29.09;46.41;101109.27;1828107;78;21071;-64
2021/07/01 05:32:18;;;;;;;8.85;4.12;;;;;;;29.24;45.75;101103.48;1827997;78;21059;-64
2021/07/01 05:35:06;;;;;;;5.62;3.80;;;;;;;29.56;45.34;101109.81;1828152;78;21178;-64
2021/07/01 05:37:37;;;;;;;9.40;4.40;;;;;;;29.71;45.24;101109.08;1826645;78;21063;-64
2021/07/01 05:40:07;;;;;;;7.60;4.72;;;;;;;30.07;45.58;101105.88;1828170;78;21117;-64
2021/07/01 05:42:36;;;;;;;9.05;4.37;;;;;;;30.28;43.88;101104.70;1828106;78;21047;-64
2021/07/01 05:45:06;;;;;;;8.25;4.65;;;;;;;30.48;42.73;101109.70;1828311;78;21596;-64
2021/07/01 05:47:36;;;;;;;8.53;4.58;;;;;;;30.65;42.63;101091.37;1828137;77;21114;-64
2021/07/01 05:50:06;;;;;;;10.20;5.08;;;;;;;30.79;42.29;101096.84;1828244;78;21091;-64
2021/07/01 05:52:36;;;;;;;8.40;4.08;;;;;;;30.95;42.55;101095.02;1828225;78;21055;-64
2021/07/01 05:55:06;;;;;;;7.12;3.98;;;;;;;31.15;41.69;101089.39;1828014;78;21212;-64
2021/07/01 05:57:35;;;;;;;9.40;3.67;;;;;;;31.25;39.90;101086.91;1828142;78;21098;-64
2021/07/01 06:00:07;;;;;;;4.47;3.50;;;;;;;31.35;39.02;101098.33;1828198;78;21596;-64
2021/07/01 06:02:37;;;;;;;8.08;3.77;;;;;;;31.21;37.55;101088.28;1825424;78;21109;-64
2021/07/01 06:05:07;;;;;;;5.47;3.65;;;;;;;31.18;37.77;101084.91;1828086;78;21137;-64
2021/07/01 06:07:43;;;;;;;9.03;3.90;;;;;;;31.33;37.85;101086.80;1817319;78;21056;-64
2021/07/01 06:10:15;;;;;;;10.35;5.22;;;;;;;31.36;37.33;101083.70;1828152;78;21110;-64
2021/07/01 06:12:44;;;;;;;7.87;4.15;;;;;;;31.41;37.60;101091.29;1828438;78;21106;-64
2021/07/01 06:15:13;;;;;;;9.60;4.80;;;;;;;31.42;37.93;101085.66;1828150;78;21607;-64
2021/07/01 06:17:44;;;;;;;10.98;4.70;;;;;;;31.51;37.74;101079.64;1828120;78;21012;-64
2021/07/01 06:20:14;;;;;;;6.55;4.15;;;;;;;31.69;38.57;101071.08;1828113;78;21012;-64
2021/07/01 06:22:43;;;;;;;10.23;4.30;;;;;;;31.93;37.81;101071.25;1828225;78;21032;-64
2021/07/01 06:25:12;;;;;;;9.50;4.25;;;;;;;31.89;37.24;101065.84;1828198;78;21118;-64
2021/07/01 06:27:42;;;;;;;10.35;4.85;;;;;;;31.96;37.29;101071.37;1828068;78;21030;-64
2021/07/01 06:30:21;;;;;;;10.72;4.60;;;;;;;32.00;37.68;101059.91;1828110;78;21507;-64
2021/07/01 06:32:51;;;;;;;9.33;5.30;;;;;;;32.13;37.11;101068.24;1827926;78;21167;-64
2021/07/01 06:35:23;;;;;;;6.12;4.60;;;;;;;32.22;36.73;101066.73;1828156;78;21040;-63
2021/07/01 06:37:52;;;;;;;;;;;;;;;32.38;36.81;101062.39;1830877;78;21032;-64
2021/07/01 06:40:40;;;;;;;10.10;4.50;;;;;;;32.53;37.07;101059.58;1828085;78;20152;-64
2021/07/01 06:43:28;;;;;;;8.43;4.50;;;;;;;32.63;35.92;101065.58;1828087;78;21613;-64
2021/07/01 06:46:16;;;;;;;6.42;4.20;;;;;;;32.64;35.71;101060.95;1828073;78;21140;-64
2021/07/01 06:49:04;;;;;;;8.58;3.98;;;;;;;32.79;35.62;101059.49;1828019;78;21076;-64
2021/07/01 06:51:52;;;;;;;8.45;4.35;;;;;;;33.01;34.73;101054.28;1828045;78;21113;-63
2021/07/01 06:54:40;;;;;;;9.35;4.50;;;;;;;33.24;34.81;101053.20;1828054;78;21105;-63
2021/07/01 06:57:18;;;;;;;7.45;4.42;;;;;;;33.46;34.78;101049.31;1825590;78;21067;-63
2021/07/01 06:59:47;;;;;;;9.45;4.22;;;;;;;33.89;34.80;101050.95;1828102;78;21031;-63
2021/07/01 07:02:16;;;;;;;5.90;3.72;;;;;;;33.83;34.12;101043.59;1828098;78;21495;-63
2021/07/01 07:04:46;;;;;;;8.48;5.45;;;;;;;33.92;33.80;101038.75;1828069;78;21522;-64
2021/07/01 07:07:16;;;;;;;14.10;4.78;;;;;;;34.18;33.64;101040.20;1828105;78;21924;-63
2021/07/01 07:09:45;;;;;;;10.08;4.87;;;;;;;34.61;33.27;101037.04;1828076;78;21562;-63
2021/07/01 07:12:14;;;;;;;7.50;4.65;;;;;;;34.68;32.94;101034.84;1828008;78;21055;-63
2021/07/01 07:14:43;;;;;;;7.42;4.03;;;;;;;34.76;33.21;101029.17;1828050;78;21506;-63
2021/07/01 07:17:11;;;;;;;7.15;4.10;;;;;;;34.80;33.15;101022.21;1828096;78;21036;-62
2021/07/01 07:19:43;;;;;;;8.30;3.67;;;;;;;34.76;32.57;101027.27;1828137;78;21080;-62
2021/07/01 07:22:12;;;;;;;4.08;3.55;;;;;;;34.57;32.40;101015.28;1828262;78;21084;-62
2021/07/01 07:24:41;;;;;;;7.37;4.55;;;;;;;34.84;33.15;101022.09;1828037;78;21056;-63
2021/07/01 07:27:12;;;;;;;8.48;4.53;;;;;;;35.01;32.35;101022.49;1828195;78;21106;-63
2021/07/01 07:29:42;;;;;;;7.10;4.20;;;;;;;35.18;32.02;101011.91;1828168;78;21036;-62
2021/07/01 07:32:14;;;;;;;8.38;4.37;;;;;;;35.27;31.91;101013.37;1828047;78;21179;-63
2021/07/01 07:34:44;;;;;;;7.40;3.85;;;;;;;35.35;31.67;101011.75;1828164;78;21527;-62
2021/07/01 07:37:13;;;;;;;6.35;4.00;;;;;;;35.54;31.83;101010.50;1828111;78;21056;-63
2021/07/01 07:39:42;;;;;;;6.67;3.77;;;;;;;35.41;30.96;101007.30;1828083;78;21138;-63
2021/07/01 07:42:12;;;;;;;5.30;4.00;;;;;;;35.38;31.30;101006.38;1828059;78;21040;-62
2021/07/01 07:44:42;;;;;;;7.17;4.05;;;;;;;35.36;31.99;101011.24;1828050;78;21071;-62
2021/07/01 07:47:13;;;;;;;6.25;3.50;;;;;;;35.56;31.89;101002.39;1828133;78;21008;-62
2021/07/01 07:49:42;;;;;;;6.35;3.50;;;;;;;35.62;29.98;101005.28;1834071;78;21149;-63
2021/07/01 07:52:13;;;;;;;6.95;3.80;;;;;;;35.66;30.44;101001.91;1837060;78;21071;-63
2021/07/01 07:54:45;;;;;;;5.12;3.85;;;;;;;35.69;29.88;101000.65;1837196;78;21028;-62
2021/07/01 07:57:15;;;;;;;7.72;4.08;;;;;;;35.50;29.83;100998.31;1836201;78;21063;-63
2021/07/01 07:59:46;;;;;;;6.25;3.55;;;;;;;35.54;30.22;100998.17;1837186;78;21024;-62
2021/07/01 08:02:26;;;;;;;6.03;3.83;;;;;;;35.61;30.06;100994.88;1836875;78;21546;-63
2021/07/01 08:04:58;;;;;;;7.22;3.12;;;;;;;35.88;30.20;101002.97;1835080;78;21051;-62
2021/07/01 08:07:28;;;;;;;6.60;3.80;;;;;;;36.14;30.72;101001.38;1837230;78;21596;-62
2021/07/01 08:09:58;;;;;;;9.75;4.00;;;;;;;36.35;31.00;100999.34;1837273;78;21493;-62
2021/07/01 08:12:31;;;;;;;9.15;4.10;;;;;;;36.65;30.28;100990.39;1837039;78;21121;-62
2021/07/01 08:15:02;;;;;;;6.70;3.17;;;;;;;36.65;29.18;100993.14;1836976;78;21127;-62
2021/07/01 08:17:31;;;;;;;6.20;3.60;;;;;;;36.63;29.76;100996.64;1837301;78;21094;-63
2021/07/01 08:20:01;;;;;;;7.50;3.92;;;;;;;36.62;29.74;100994.44;1837188;78;21434;-63
2021/07/01 08:22:29;;;;;;;4.17;3.15;;;;;;;36.57;29.33;100993.45;1837012;78;21490;-65
2021/07/01 08:24:58;;;;;;;6.60;3.87;;;;;;;36.66;29.41;100992.09;1837083;78;21067;-65
2021/07/01 08:27:28;;;;;;;7.72;3.92;;;;;;;36.74;29.14;100987.69;1836939;78;21099;-64
2021/07/01 08:29:57;;;;;;;4.17;3.40;;;;;;;36.64;28.93;100989.56;1837072;78;21545;-64
2021/07/01 08:32:26;;;;;;;6.03;3.62;;;;;;;36.68;29.05;100988.07;1837056;78;21431;-63
2021/07/01 08:34:55;;;;;;;5.12;3.45;;;;;;;36.65;29.28;100980.80;1837036;78;21102;-63
2021/07/01 08:37:25;;;;;;;7.00;3.90;;;;;;;36.71;29.28;100985.42;1837073;78;21482;-63
2021/07/01 08:39:55;;;;;;;9.33;4.42;;;;;;;36.88;29.60;100983.73;1837037;78;21011;-64
2021/07/01 08:42:27;;;;;;;4.22;2.90;;;;;;;36.95;29.30;100982.84;1837181;78;21109;-64
2021/07/01 08:44:58;;;;;;;5.00;3.60;;;;;;;36.93;28.95;100983.58;1837171;78;21007;-64
2021/07/01 08:47:32;;;;;;;5.47;4.00;;;;;;;36.93;29.26;100973.97;1837010;76;21127;-64
2021/07/01 08:50:03;;;;;;;5.83;3.58;;;;;;;36.93;29.26;100973.97;1835743;77;21389;-64
2021/07/01 08:52:34;;;;;;;5.83;3.40;;;;;;;37.15;29.01;100979.34;1837340;78;21525;-63
2021/07/01 08:55:07;;;;;;;3.55;3.25;;;;;;;36.98;27.77;100971.39;1837249;78;21379;-64
2021/07/01 08:57:38;;;;;;;6.12;3.65;;;;;;;36.80;28.21;100982.69;1837285;78;21097;-63
2021/07/01 09:00:14;;;;;;;6.75;3.75;;;;;;;36.64;27.68;100981.34;1837180;78;21008;-64
2021/07/01 09:03:03;;;;;;;4.83;3.60;;;;;;;36.73;28.11;100984.66;1837076;78;21054;-65
2021/07/01 09:05:34;;;;;;;7.25;3.47;;;;;;;36.68;28.15;100985.33;1837162;78;21031;-64
2021/07/01 09:08:05;;;;;;;4.40;3.60;;;;;;;36.82;28.02;100984.66;1837167;78;21032;-64
2021/07/01 09:10:35;;;;;;;6.60;3.60;;;;;;;36.73;27.50;100988.77;1837238;78;21583;-64
2021/07/01 09:13:10;;;;;;;7.78;3.45;;;;;;;36.84;27.76;100981.16;1837126;78;21499;-65
2021/07/01 09:15:39;;;;;;;5.05;3.35;;;;;;;36.73;27.63;100989.31;1837139;78;21071;-64
2021/07/01 09:18:10;;;;;;;5.42;3.80;;;;;;;36.75;28.38;100982.52;1837281;78;21087;-64
2021/07/01 09:20:39;;;;;;;3.80;3.17;;;;;;;36.85;28.46;100982.84;1837161;78;21040;-64
2021/07/01 09:23:10;;;;;;;11.43;3.65;;;;;;;37.10;27.60;100981.91;1837185;78;21161;-64
2021/07/01 09:25:40;;;;;;;6.97;3.55;;;;;;;37.25;27.37;100986.48;1837059;78;21035;-64
2021/07/01 09:28:09;;;;;;;5.08;2.95;;;;;;;37.31;26.60;100980.59;1837382;78;21430;-64
2021/07/01 09:30:38;;;;;;;4.65;3.33;;;;;;;37.21;26.07;100982.53;1837154;78;21067;-64
2021/07/01 09:33:09;;;;;;;4.47;3.15;;;;;;;36.96;26.27;100980.39;1837168;78;21200;-64
2021/07/01 09:35:39;;;;;;;4.45;3.45;;;;;;;36.96;26.44;100983.96;1837237;78;21079;-64
2021/07/01 09:38:11;;;;;;;4.08;3.52;;;;;;;36.84;26.20;100991.30;1837090;78;21587;-64
2021/07/01 09:40:40;;;;;;;4.20;3.00;;;;;;;36.61;26.40;100993.30;1837361;78;21466;-64
2021/07/01 09:43:09;;;;;;;5.47;3.30;;;;;;;36.59;26.41;100985.28;1837223;78;21055;-64
2021/07/01 09:45:38;;;;;;;5.97;3.02;;;;;;;36.60;26.49;100984.23;1837355;78;21494;-64
2021/07/01 09:48:10;;;;;;;4.90;3.62;;;;;;;36.69;26.64;100981.53;1837249;78;21636;-64
2021/07/01 09:50:46;;;;;;;7.47;3.70;;;;;;;36.79;26.74;100976.88;1837112;78;21067;-65
2021/07/01 09:53:24;;;;;;;5.10;3.60;;;;;;;36.80;26.74;100966.23;1836368;76;21023;-64
2021/07/01 09:55:53;;;;;;;5.92;3.95;;;;;;;36.49;27.44;100972.11;1836389;78;21063;-64
2021/07/01 09:58:24;;;;;;;10.20;4.20;;;;;;;36.38;27.69;100967.37;1837124;78;21176;-64
2021/07/01 10:00:53;;;;;;;7.10;3.87;;;;;;;36.32;28.74;100970.48;1836964;77;21040;-64
2021/07/01 10:03:22;;;;;;;7.70;3.90;;;;;;;36.29;28.25;100968.72;1837071;78;21546;-64
2021/07/01 10:05:51;;;;;;;4.03;3.22;;;;;;;36.09;28.20;100973.80;1837156;78;21139;-64
2021/07/01 10:08:21;;;;;;;5.92;3.05;;;;;;;35.91;28.41;100974.59;1837139;78;21552;-64
2021/07/01 10:10:54;;;;;;;4.58;3.35;;;;;;;35.53;28.53;100962.28;1837169;78;21027;-64
2021/07/01 10:13:23;;;;;;;8.20;3.42;;;;;;;35.34;29.40;100964.92;1837162;78;21027;-64
2021/07/01 10:15:53;;;;;;;5.47;3.40;;;;;;;35.43;28.95;100972.86;1836996;78;21047;-64
2021/07/01 10:18:23;;;;;;;6.33;3.33;;;;;;;35.48;29.12;100962.09;1837223;78;21031;-64
2021/07/01 10:20:54;;;;;;;3.67;2.72;;;;;;;35.45;29.01;100966.63;1837255;78;21031;-63
2021/07/01 10:23:31;;;;;;;4.60;3.33;;;;;;;35.24;28.62;100963.16;1837139;78;21514;-63
2021/07/01 10:26:02;;;;;;;6.37;3.67;;;;;;;34.98;29.07;100955.34;1837125;78;21011;-63
2021/07/01 10:28:31;;;;;;;8.25;3.55;;;;;;;34.87;29.05;100965.59;1835688;78;21008;-64
2021/07/01 10:31:02;;;;;;;8.20;4.10;;;;;;;35.00;29.70;100960.08;1837129;78;21059;-64
2021/07/01 10:33:34;;;;;;;7.42;3.45;;;;;;;35.27;29.91;100960.55;1837133;78;21098;-64
2021/07/01 10:36:05;;;;;;;7.28;3.90;;;;;;;35.35;29.27;100954.27;1837230;78;21102;-64
2021/07/01 10:38:50;;;;;;;6.25;2.83;;;;;;;35.21;29.79;100955.92;1837182;78;21007;-64
2021/07/01 10:41:37;;;;;;;9.90;3.98;;;;;;;35.07;29.40;100955.95;1837145;78;21017;-64
2021/07/01 10:44:07;;;;;;;7.00;3.65;;;;;;;34.97;30.41;100940.01;1837129;78;21043;-64
2021/07/01 10:46:45;;;;;;;4.85;3.50;;;;;;;34.92;30.31;100951.29;1837119;78;21035;-64
2021/07/01 10:49:14;;;;;;;4.95;3.40;;;;;;;34.32;31.06;100936.35;1837034;78;21032;-64
2021/07/01 10:55:01;;;;;;;3.90;3.50;;;;;;;34.07;31.40;100939.72;1806445;78;21123;-64
2021/07/01 10:57:30;;;;;;;6.65;3.27;;;;;;;33.71;31.71;100941.47;1822290;78;21052;-64
2021/07/01 10:59:59;;;;;;;5.40;3.30;;;;;;;33.62;31.80;100935.33;1822440;79;21036;-64
2021/07/01 11:02:33;;;;;;;6.97;3.72;;;;;;;33.25;31.92;100922.01;1822332;79;21004;-64
2021/07/01 11:05:04;;;;;;;6.00;3.62;;;;;;;33.03;32.85;100917.18;1822341;78;21028;-64
2021/07/01 11:07:45;;;;;;;4.25;3.35;;;;;;;32.97;33.46;100922.09;1822554;79;21095;-64
2021/07/01 11:10:15;;;;;;;6.95;4.20;;;;;;;33.03;33.71;100919.91;1822270;78;21080;-64
2021/07/01 11:12:46;;;;;;;6.60;3.75;;;;;;;32.94;33.54;100918.40;1822385;79;21106;-64
2021/07/01 11:15:15;;;;;;;7.62;4.00;;;;;;;32.98;33.80;100914.24;1822399;79;21032;-64
2021/07/01 11:17:44;;;;;;;5.55;3.45;;;;;;;33.00;33.84;100913.52;1822278;79;21134;-64
2021/07/01 11:20:18;;;;;;;8.85;3.58;;;;;;;32.96;33.87;100914.97;1822254;79;21114;-65
2021/07/01 11:22:50;;;;;;;4.53;3.60;;;;;;;32.76;33.62;100905.83;1822267;79;21115;-64
2021/07/01 11:25:37;;;;;;;4.30;3.60;;;;;;;32.72;33.91;100910.02;1822782;79;21076;-64
2021/07/01 11:28:26;;;;;;;7.00;3.25;;;;;;;32.64;33.78;100907.77;1822314;79;21079;-63
2021/07/01 11:30:58;;;;;;;6.75;3.50;;;;;;;32.55;34.14;100905.39;1822148;78;21013;-63
2021/07/01 11:33:26;;;;;;;8.00;3.27;;;;;;;32.47;33.77;100911.84;1822501;78;21040;-64
2021/07/01 11:36:14;;;;;;;10.53;4.08;;;;;;;32.33;33.73;100905.45;1822300;79;21593;-63
2021/07/01 11:38:44;;;;;;;5.15;3.75;;;;;;;32.27;33.76;100893.48;1822490;79;21012;-63
2021/07/01 11:41:14;;;;;;;7.87;3.50;;;;;;;32.39;34.31;100903.31;1822257;79;21110;-63
2021/07/01 11:43:44;;;;;;;5.58;3.60;;;;;;;32.46;34.32;100903.34;1822270;79;21483;-63
2021/07/01 11:46:13;;;;;;;10.18;4.17;;;;;;;32.44;33.97;100907.63;1822278;79;21134;-63
2021/07/01 11:48:44;;;;;;;7.90;3.65;;;;;;;32.51;34.93;100903.59;1822296;79;21056;-63